Time;durP1;ratioP1;P1;durP2;ratioP2;P2;SDS_P1;SDS_P2;PMS_P1;PMS_P2;Temp;Humidity;BMP_temperature;BMP_pressure;BME280_temperature;BME280_humidity;BME280_pressure;Samples;Min_cycle;Max_cycle;Signal;HPM_P1;HPM_P2
2021/01/08 00:00:49;;;;;;;11.43;9.53;;;2.70;99.90;;;;;;5012476;28;20293;-78
2021/01/08 00:03:15;;;;;;;11.43;8.88;;;2.70;99.90;;;;;;4994132;28;20208;-77
2021/01/08 00:05:40;;;;;;;12.10;8.67;;;2.70;99.90;;;;;;5001013;28;20280;-77
2021/01/08 00:08:06;;;;;;;14.40;9.87;;;2.70;99.90;;;;;;5010137;28;20444;-77
2021/01/08 00:10:32;;;;;;;13.32;9.65;;;2.60;99.90;;;;;;4995556;28;20244;-77
2021/01/08 00:12:58;;;;;;;12.87;8.63;;;2.60;99.90;;;;;;4994998;28;20289;-77
2021/01/08 00:15:24;;;;;;;13.63;10.20;;;2.60;99.90;;;;;;5006624;28;20455;-77
2021/01/08 00:17:49;;;;;;;15.07;9.83;;;2.60;99.90;;;;;;4996007;28;20260;-78
2021/01/08 00:20:15;;;;;;;13.77;9.33;;;2.60;99.90;;;;;;5012343;28;20198;-78
2021/01/08 00:22:41;;;;;;;14.00;10.33;;;2.60;99.90;;;;;;5010429;28;20228;-78
2021/01/08 00:25:07;;;;;;;13.00;9.90;;;2.60;99.90;;;;;;5003745;28;20438;-79
2021/01/08 00:27:33;;;;;;;11.20;8.93;;;2.60;99.90;;;;;;4997774;28;20465;-79
2021/01/08 00:29:59;;;;;;;11.20;8.30;;;2.60;99.90;;;;;;4994877;28;20641;-78
2021/01/08 00:32:24;;;;;;;12.17;9.30;;;2.60;99.90;;;;;;5011861;28;20575;-78
2021/01/08 00:34:50;;;;;;;10.23;8.80;;;2.70;99.90;;;;;;5004047;28;20202;-78
2021/01/08 00:37:16;;;;;;;12.43;7.93;;;2.60;99.90;;;;;;5000578;28;20202;-78
2021/01/08 00:39:44;;;;;;;12.20;8.70;;;2.60;99.90;;;;;;5008237;28;20419;-78
2021/01/08 00:42:10;;;;;;;13.45;8.73;;;2.60;99.90;;;;;;4992560;28;20884;-78
2021/01/08 00:44:36;;;;;;;10.40;8.00;;;2.70;99.90;;;;;;4993618;28;20226;-78
2021/01/08 00:47:02;;;;;;;11.90;8.07;;;2.70;99.90;;;;;;4993782;28;20245;-78
2021/01/08 00:49:27;;;;;;;11.07;8.57;;;2.60;99.90;;;;;;5007192;28;20438;-79
2021/01/08 00:51:53;;;;;;;11.03;8.73;;;2.60;99.90;;;;;;4993881;28;20692;-79
2021/01/08 00:54:19;;;;;;;11.10;7.70;;;2.70;99.90;;;;;;4994258;28;20190;-79
2021/01/08 00:56:46;;;;;;;8.00;6.73;;;2.70;99.90;;;;;;5009669;28;20296;-79
2021/01/08 00:59:12;;;;;;;12.90;8.95;;;2.60;99.90;;;;;;5010128;28;20746;-79
2021/01/08 01:01:38;;;;;;;10.50;8.00;;;2.60;99.90;;;;;;4983381;28;20225;-79
2021/01/08 01:04:03;;;;;;;11.20;7.80;;;2.60;99.90;;;;;;5003627;28;20552;-79
2021/01/08 01:06:31;;;;;;;11.10;7.87;;;2.60;99.90;;;;;;4993665;28;20644;-80
2021/01/08 01:08:58;;;;;;;11.30;8.63;;;2.60;99.90;;;;;;4993109;28;20507;-80
2021/01/08 01:11:25;;;;;;;10.02;7.57;;;2.60;99.90;;;;;;4992341;28;20640;-80
2021/01/08 01:13:55;;;;;;;12.18;9.07;;;2.60;99.90;;;;;;4994192;28;20297;-80
2021/01/08 01:16:21;;;;;;;9.90;8.35;;;2.60;99.90;;;;;;4992567;28;20209;-81
2021/01/08 01:18:53;;;;;;;10.77;8.75;;;2.60;99.90;;;;;;4993450;28;20590;-81
2021/01/08 01:21:19;;;;;;;8.77;7.40;;;2.60;99.90;;;;;;4993835;28;20221;-81
2021/01/08 01:23:45;;;;;;;10.85;6.72;;;2.50;99.90;;;;;;4992962;28;20225;-81
2021/01/08 01:26:12;;;;;;;8.32;7.30;;;2.50;99.90;;;;;;4996649;28;20216;-79
2021/01/08 01:28:38;;;;;;;10.18;8.77;;;2.50;99.90;;;;;;4996255;28;20696;-81
2021/01/08 01:31:04;;;;;;;7.05;6.35;;;2.50;99.90;;;;;;5013387;28;20727;-80
2021/01/08 01:33:30;;;;;;;8.02;7.05;;;2.50;99.90;;;;;;5013669;28;20182;-80
2021/01/08 01:35:57;;;;;;;9.33;7.73;;;2.50;99.90;;;;;;5012090;28;20579;-80
2021/01/08 01:38:23;;;;;;;8.35;6.90;;;2.60;99.90;;;;;;5013550;28;20456;-81
2021/01/08 01:40:50;;;;;;;8.70;7.10;;;2.50;99.90;;;;;;5002402;28;20637;-81
2021/01/08 01:43:16;;;;;;;8.43;7.43;;;2.50;99.90;;;;;;4992588;28;20206;-81
2021/01/08 01:45:42;;;;;;;9.23;6.75;;;2.50;99.90;;;;;;4993784;28;20174;-79
2021/01/08 01:48:09;;;;;;;8.20;6.72;;;2.40;99.90;;;;;;4991418;28;20206;-79
2021/01/08 01:50:35;;;;;;;7.82;6.30;;;2.40;99.90;;;;;;4990722;28;20170;-79
2021/01/08 01:53:01;;;;;;;8.70;6.83;;;2.40;99.90;;;;;;4996694;28;20680;-80
2021/01/08 01:55:29;;;;;;;7.03;6.25;;;2.40;99.90;;;;;;4988045;28;20420;-80
2021/01/08 01:57:57;;;;;;;7.18;6.30;;;2.40;99.90;;;;;;5003874;28;20213;-81
2021/01/08 02:00:23;;;;;;;7.07;6.35;;;2.40;99.90;;;;;;4976612;28;20178;-81
2021/01/08 02:02:53;;;;;;;8.37;6.53;;;2.30;99.90;;;;;;4993165;28;20214;-81
2021/01/08 02:05:20;;;;;;;8.05;7.25;;;2.30;99.90;;;;;;5006677;28;20411;-81
2021/01/08 02:08:04;;;;;;;7.75;6.97;;;2.30;99.90;;;;;;5011821;28;20296;-81
2021/01/08 02:11:04;;;;;;;8.30;7.13;;;2.30;99.90;;;;;;5012458;28;20577;-80
2021/01/08 02:13:42;;;;;;;7.38;6.68;;;2.30;99.90;;;;;;5005401;28;20684;-79
2021/01/08 02:16:11;;;;;;;8.38;7.57;;;2.30;99.90;;;;;;4999391;28;20624;-80
2021/01/08 02:18:38;;;;;;;7.47;6.28;;;2.30;99.90;;;;;;4992839;28;20225;-79
2021/01/08 02:21:11;;;;;;;8.10;7.30;;;2.30;99.90;;;;;;5009033;28;20235;-79
2021/01/08 02:24:12;;;;;;;7.78;7.00;;;2.30;99.90;;;;;;5012672;28;20217;-80
2021/01/08 02:26:39;;;;;;;9.40;8.00;;;2.30;99.90;;;;;;4985251;28;20220;-80
2021/01/08 02:29:04;;;;;;;8.88;7.82;;;2.30;99.90;;;;;;4990462;28;20166;-80
2021/01/08 02:31:30;;;;;;;10.80;9.53;;;2.30;99.90;;;;;;4994264;28;20229;-80
2021/01/08 02:33:57;;;;;;;10.40;8.07;;;2.30;99.90;;;;;;5000679;28;20257;-80
2021/01/08 02:36:23;;;;;;;9.38;8.38;;;2.30;99.90;;;;;;4990939;28;20453;-80
2021/01/08 02:38:51;;;;;;;8.35;7.45;;;2.30;99.90;;;;;;4999023;28;20661;-79
2021/01/08 02:41:18;;;;;;;8.10;6.97;;;2.30;99.90;;;;;;4998450;28;20269;-79
2021/01/08 02:43:45;;;;;;;8.30;7.15;;;2.30;99.90;;;;;;5007216;28;20296;-79
2021/01/08 02:46:11;;;;;;;8.43;6.97;;;2.40;99.90;;;;;;5004987;28;20620;-80
2021/01/08 02:48:36;;;;;;;8.77;7.97;;;2.40;99.90;;;;;;4998894;28;20198;-80
2021/01/08 02:51:03;;;;;;;8.17;7.37;;;2.40;99.90;;;;;;5016114;28;20162;-80
2021/01/08 02:53:32;;;;;;;8.52;7.60;;;2.40;99.90;;;;;;5016256;28;20437;-80
2021/01/08 02:56:03;;;;;;;7.75;7.00;;;2.40;99.90;;;;;;5005710;28;20221;-79
2021/01/08 02:58:31;;;;;;;8.95;7.32;;;2.40;99.90;;;;;;4996519;28;20201;-79
2021/01/08 03:00:58;;;;;;;7.38;6.63;;;2.40;99.90;;;;;;5011982;28;20165;-80
2021/01/08 03:03:27;;;;;;;7.80;7.07;;;2.40;99.90;;;;;;4996208;28;20573;-79
2021/01/08 03:05:54;;;;;;;7.88;7.05;;;2.40;99.90;;;;;;4996121;28;20170;-80
2021/01/08 03:08:20;;;;;;;8.50;7.15;;;2.40;99.90;;;;;;5007225;28;20182;-78
2021/01/08 03:10:46;;;;;;;10.00;8.02;;;2.40;99.90;;;;;;4998069;28;20170;-79
2021/01/08 03:13:13;;;;;;;9.97;8.10;;;2.30;99.90;;;;;;4994604;28;20245;-78
2021/01/08 03:15:38;;;;;;;8.30;7.47;;;2.40;99.90;;;;;;4999935;28;20179;-78
2021/01/08 03:18:04;;;;;;;10.30;7.83;;;2.40;99.90;;;;;;5011782;28;20220;-78
2021/01/08 03:20:30;;;;;;;9.18;8.38;;;2.40;99.90;;;;;;4990573;28;20637;-78
2021/01/08 03:22:56;;;;;;;9.33;8.23;;;2.40;99.90;;;;;;4993572;28;20222;-78
2021/01/08 03:25:22;;;;;;;9.33;7.80;;;2.40;99.90;;;;;;4989126;28;20170;-78
2021/01/08 03:27:47;;;;;;;7.77;7.07;;;2.30;99.90;;;;;;4996899;28;20639;-78
2021/01/08 03:30:13;;;;;;;8.00;7.00;;;2.40;99.90;;;;;;5010345;28;20571;-78
2021/01/08 03:32:39;;;;;;;8.98;7.97;;;2.40;99.90;;;;;;4993892;28;20215;-78
2021/01/08 03:35:06;;;;;;;7.80;7.00;;;2.40;99.90;;;;;;4994317;28;20262;-78
2021/01/08 03:37:32;;;;;;;8.18;7.10;;;2.30;99.90;;;;;;5008669;28;20221;-80
2021/01/08 03:39:57;;;;;;;10.53;8.27;;;2.30;99.90;;;;;;5013419;28;21470;-78
2021/01/08 03:42:23;;;;;;;10.53;9.20;;;2.30;99.90;;;;;;4997858;28;20535;-78
2021/01/08 03:44:49;;;;;;;9.50;8.60;;;2.30;99.90;;;;;;5005094;28;20167;-78
2021/01/08 03:47:15;;;;;;;10.43;8.60;;;2.30;99.90;;;;;;4993577;28;21022;-78
2021/01/08 03:49:40;;;;;;;8.70;7.90;;;2.30;99.90;;;;;;5008488;28;20197;-78
2021/01/08 03:52:07;;;;;;;8.63;7.80;;;2.30;99.90;;;;;;5009873;28;20734;-78
2021/01/08 03:54:34;;;;;;;9.73;8.75;;;2.20;99.90;;;;;;4993424;28;20198;-78
2021/01/08 03:57:00;;;;;;;9.73;8.68;;;2.20;99.90;;;;;;5006413;28;20233;-80
2021/01/08 03:59:26;;;;;;;9.30;8.38;;;2.20;99.90;;;;;;5015225;28;20248;-80
2021/01/08 04:01:52;;;;;;;11.00;8.77;;;2.20;99.90;;;;;;5015013;28;20209;-80
2021/01/08 04:04:17;;;;;;;9.10;8.30;;;2.20;99.90;;;;;;5015057;28;20452;-80
2021/01/08 04:06:43;;;;;;;8.20;7.40;;;2.30;99.90;;;;;;5014732;28;20676;-79
2021/01/08 04:09:09;;;;;;;9.77;8.83;;;2.20;99.90;;;;;;5002190;28;20202;-78
2021/01/08 04:11:34;;;;;;;8.90;7.43;;;2.30;99.90;;;;;;5005784;28;20294;-78
2021/01/08 04:14:00;;;;;;;9.10;8.20;;;2.30;99.90;;;;;;4976906;28;20214;-78
2021/01/08 04:16:33;;;;;;;9.00;7.80;;;2.30;99.90;;;;;;5005773;28;20577;-78
2021/01/08 04:18:59;;;;;;;8.98;8.18;;;2.30;99.90;;;;;;5014174;28;20266;-80
2021/01/08 04:21:25;;;;;;;9.13;7.97;;;2.30;99.90;;;;;;5008939;28;20214;-80
2021/01/08 04:23:50;;;;;;;10.37;9.10;;;2.30;99.90;;;;;;4995003;28;20274;-80
2021/01/08 04:26:16;;;;;;;9.20;8.30;;;2.30;99.90;;;;;;4994851;28;20547;-80
2021/01/08 04:28:42;;;;;;;8.67;7.73;;;2.20;99.90;;;;;;4977396;28;20329;-80
2021/01/08 04:31:07;;;;;;;8.80;8.00;;;2.20;99.90;;;;;;4994483;28;20213;-78
2021/01/08 04:33:33;;;;;;;8.60;7.63;;;2.20;99.90;;;;;;4992958;28;20197;-78
2021/01/08 04:35:59;;;;;;;9.20;8.27;;;2.20;99.90;;;;;;5002710;28;20260;-80
2021/01/08 04:38:24;;;;;;;8.30;7.50;;;2.20;99.90;;;;;;5000996;28;20316;-80
2021/01/08 04:40:50;;;;;;;10.83;8.17;;;2.20;99.90;;;;;;4993506;28;20174;-80
2021/01/08 04:43:16;;;;;;;10.37;9.00;;;2.20;99.90;;;;;;5014213;28;20217;-80
2021/01/08 04:45:42;;;;;;;9.23;8.32;;;2.20;99.90;;;;;;5014523;28;20174;-80
2021/01/08 04:48:09;;;;;;;8.93;8.03;;;2.20;99.90;;;;;;5001741;28;20198;-78
2021/01/08 04:50:35;;;;;;;8.70;7.20;;;2.20;99.90;;;;;;4992990;28;20220;-78
2021/01/08 04:53:01;;;;;;;7.80;6.88;;;2.30;99.90;;;;;;5008075;28;20214;-79
2021/01/08 04:55:28;;;;;;;8.93;7.87;;;2.30;99.90;;;;;;5005621;28;20546;-78
2021/01/08 04:57:55;;;;;;;8.40;7.47;;;2.30;99.90;;;;;;4994904;28;20519;-79
2021/01/08 05:00:21;;;;;;;8.50;7.30;;;2.20;99.90;;;;;;4992734;28;20201;-79
2021/01/08 05:02:49;;;;;;;7.30;6.70;;;2.20;99.90;;;;;;5007516;28;20676;-78
2021/01/08 05:05:17;;;;;;;8.88;7.95;;;2.20;99.90;;;;;;5010569;28;20229;-79
2021/01/08 05:07:44;;;;;;;8.82;8.02;;;2.20;99.90;;;;;;5003865;28;20202;-80
2021/01/08 05:10:11;;;;;;;8.63;7.72;;;2.20;99.90;;;;;;5013386;28;20186;-80
2021/01/08 05:12:44;;;;;;;10.38;8.55;;;2.20;99.90;;;;;;4995830;28;20672;-81
2021/01/08 05:15:16;;;;;;;9.00;7.38;;;2.20;99.90;;;;;;5008678;28;20269;-79
2021/01/08 05:17:43;;;;;;;8.07;7.28;;;2.20;99.90;;;;;;4992493;28;20232;-79
2021/01/08 05:20:12;;;;;;;9.77;7.47;;;2.20;99.90;;;;;;5002809;28;20190;-79
2021/01/08 05:22:39;;;;;;;8.52;7.63;;;2.20;99.90;;;;;;5004266;28;20203;-79
2021/01/08 05:25:06;;;;;;;8.15;7.35;;;2.20;99.90;;;;;;4992054;28;20241;-79
2021/01/08 05:27:32;;;;;;;8.15;7.35;;;2.20;99.90;;;;;;4993113;28;20482;-79
2021/01/08 05:30:18;;;;;;;9.37;7.70;;;2.20;99.90;;;;;;4994425;28;20286;-79
2021/01/08 05:32:45;;;;;;;8.07;6.68;;;2.20;99.90;;;;;;5002005;28;20456;-79
2021/01/08 05:35:15;;;;;;;8.82;7.60;;;2.20;99.90;;;;;;4992277;28;20606;-81
2021/01/08 05:37:43;;;;;;;9.63;8.63;;;2.20;99.90;;;;;;4999842;28;20301;-79
2021/01/08 05:40:10;;;;;;;8.45;7.65;;;2.10;99.90;;;;;;5000843;28;20259;-79
2021/01/08 05:42:51;;;;;;;8.90;8.00;;;2.10;99.90;;;;;;4996428;28;20268;-79
2021/01/08 05:45:18;;;;;;;10.25;8.23;;;2.10;99.90;;;;;;5006011;28;20204;-79
2021/01/08 05:47:44;;;;;;;8.70;6.90;;;2.10;99.90;;;;;;5011767;28;20220;-79
2021/01/08 05:50:12;;;;;;;9.90;8.35;;;2.10;99.90;;;;;;5012992;28;20261;-80
2021/01/08 05:52:50;;;;;;;9.20;8.23;;;2.10;99.90;;;;;;5012879;28;20212;-80
2021/01/08 05:55:16;;;;;;;8.20;7.50;;;2.10;99.90;;;;;;4994043;28;20197;-80
2021/01/08 05:57:42;;;;;;;8.83;7.53;;;2.20;99.90;;;;;;4999275;28;20684;-78
2021/01/08 06:00:09;;;;;;;9.27;8.37;;;2.10;99.90;;;;;;4992566;28;20441;-80
2021/01/08 06:02:38;;;;;;;8.35;7.10;;;2.10;99.90;;;;;;4987241;28;20445;-78
2021/01/08 06:05:07;;;;;;;9.75;7.50;;;2.10;99.90;;;;;;5000113;28;20696;-78
2021/01/08 06:07:40;;;;;;;8.60;7.57;;;2.10;99.90;;;;;;4973290;28;20217;-79
2021/01/08 06:10:08;;;;;;;9.43;8.25;;;2.10;99.90;;;;;;4994030;28;20236;-80
2021/01/08 06:12:38;;;;;;;9.63;8.32;;;2.10;99.90;;;;;;4998132;28;20217;-80
2021/01/08 06:15:10;;;;;;;8.45;7.57;;;2.10;99.90;;;;;;4995749;28;20228;-80
2021/01/08 06:17:38;;;;;;;10.15;8.15;;;2.10;99.90;;;;;;5012576;28;20279;-80
2021/01/08 06:20:05;;;;;;;11.70;8.65;;;2.10;99.90;;;;;;5002780;28;20187;-80
2021/01/08 06:22:38;;;;;;;9.45;7.90;;;2.10;99.90;;;;;;4996410;28;20206;-80
2021/01/08 06:25:06;;;;;;;8.82;7.53;;;2.10;99.90;;;;;;5007089;28;20197;-80
2021/01/08 06:27:33;;;;;;;9.63;8.60;;;2.10;99.90;;;;;;5016215;28;20214;-78
2021/01/08 06:30:01;;;;;;;8.60;7.70;;;2.10;99.90;;;;;;5003989;28;20194;-78
2021/01/08 06:32:31;;;;;;;8.40;7.60;;;2.10;99.90;;;;;;5009922;28;20611;-78
2021/01/08 06:35:05;;;;;;;8.85;7.78;;;2.10;99.90;;;;;;4995560;28;20193;-80
2021/01/08 06:37:40;;;;;;;8.25;7.45;;;2.10;99.90;;;;;;4996245;28;20693;-79
2021/01/08 06:40:09;;;;;;;9.73;8.73;;;2.10;99.90;;;;;;4979115;28;20720;-78
2021/01/08 06:42:46;;;;;;;8.93;8.02;;;2.10;99.90;;;;;;5013299;28;20205;-80
2021/01/08 06:45:17;;;;;;;7.85;7.15;;;2.10;99.90;;;;;;5005198;28;20248;-80
2021/01/08 06:47:47;;;;;;;8.23;7.43;;;2.10;99.90;;;;;;4996332;28;20222;-78
2021/01/08 06:50:19;;;;;;;8.98;8.02;;;2.10;99.90;;;;;;4996066;28;20190;-79
2021/01/08 06:52:49;;;;;;;7.88;7.07;;;2.10;99.90;;;;;;5014170;28;20217;-80
2021/01/08 06:55:17;;;;;;;9.38;7.65;;;2.10;99.90;;;;;;4997315;28;20591;-78
2021/01/08 06:57:52;;;;;;;8.85;7.95;;;2.10;99.90;;;;;;5012580;28;20217;-78
2021/01/08 07:00:21;;;;;;;9.95;8.57;;;2.10;99.90;;;;;;5007515;28;20194;-78
2021/01/08 07:02:51;;;;;;;8.57;7.70;;;2.10;99.90;;;;;;5007026;28;20226;-80
2021/01/08 07:05:18;;;;;;;9.20;8.30;;;2.10;99.90;;;;;;5014213;28;20190;-78
2021/01/08 07:07:45;;;;;;;8.70;7.60;;;2.10;99.90;;;;;;5003779;28;20253;-78
2021/01/08 07:10:23;;;;;;;8.88;7.97;;;2.10;99.90;;;;;;5012280;28;20653;-80
2021/01/08 07:12:54;;;;;;;9.00;8.07;;;2.10;99.90;;;;;;4986685;28;20591;-78
2021/01/08 07:15:20;;;;;;;8.30;7.45;;;2.10;99.90;;;;;;5015177;28;20233;-79
2021/01/08 07:17:54;;;;;;;9.52;8.43;;;2.10;99.90;;;;;;5014960;28;20297;-78
2021/01/08 07:20:20;;;;;;;10.25;9.02;;;2.10;99.90;;;;;;4982453;28;20234;-80
2021/01/08 07:22:51;;;;;;;11.30;9.75;;;2.10;99.90;;;;;;5013471;28;20221;-78
2021/01/08 07:25:19;;;;;;;9.88;8.88;;;2.10;99.90;;;;;;5013274;28;20647;-78
2021/01/08 07:27:45;;;;;;;10.27;8.20;;;2.10;99.90;;;;;;5013112;28;20206;-79
2021/01/08 07:30:13;;;;;;;8.93;7.90;;;2.00;99.90;;;;;;4979812;28;20876;-78
2021/01/08 07:32:45;;;;;;;9.10;8.20;;;2.10;99.90;;;;;;5011469;28;20686;-78
2021/01/08 07:35:16;;;;;;;9.82;8.45;;;2.10;99.90;;;;;;5013525;28;20201;-78
2021/01/08 07:37:57;;;;;;;8.63;7.63;;;2.10;99.90;;;;;;5013036;28;20201;-79
2021/01/08 07:40:23;;;;;;;9.40;8.45;;;2.10;99.90;;;;;;4996070;28;20190;-79
2021/01/08 07:42:55;;;;;;;11.30;10.20;;;2.10;99.90;;;;;;5012774;28;20286;-78
2021/01/08 07:45:21;;;;;;;10.00;9.00;;;2.00;99.90;;;;;;4995713;28;20198;-79
2021/01/08 07:47:46;;;;;;;10.73;8.77;;;2.00;99.90;;;;;;5012514;28;20256;-79
2021/01/08 07:50:14;;;;;;;9.83;8.83;;;2.00;99.90;;;;;;5015452;28;20192;-81
2021/01/08 07:52:44;;;;;;;10.07;9.07;;;2.10;99.90;;;;;;5014905;28;20206;-81
2021/01/08 07:55:29;;;;;;;10.75;8.48;;;2.10;99.90;;;;;;4997577;28;20186;-81
2021/01/08 07:58:25;;;;;;;12.20;9.52;;;2.10;99.90;;;;;;5014997;28;20209;-81
2021/01/08 08:00:51;;;;;;;12.00;10.75;;;2.10;99.90;;;;;;4997090;28;20197;-81
2021/01/08 08:03:18;;;;;;;12.88;10.77;;;2.10;99.90;;;;;;5014707;28;20201;-79
2021/01/08 08:05:45;;;;;;;10.63;9.18;;;2.00;99.90;;;;;;5011178;28;20198;-79
2021/01/08 08:08:11;;;;;;;16.45;10.57;;;2.10;99.90;;;;;;5011076;28;20652;-79
2021/01/08 08:10:36;;;;;;;12.35;9.77;;;2.10;99.90;;;;;;5013501;28;20213;-81
2021/01/08 08:13:02;;;;;;;13.87;10.33;;;2.10;99.90;;;;;;5014673;28;20700;-81
2021/01/08 08:15:28;;;;;;;14.50;10.47;;;2.10;99.90;;;;;;5013099;28;20284;-79
2021/01/08 08:17:57;;;;;;;12.73;10.60;;;2.10;99.90;;;;;;5007164;28;20504;-79
2021/01/08 08:20:24;;;;;;;11.57;9.85;;;2.10;99.90;;;;;;5002293;28;20201;-79
2021/01/08 08:22:54;;;;;;;12.77;10.23;;;2.10;99.90;;;;;;5007417;28;20252;-79
2021/01/08 08:25:28;;;;;;;13.50;12.10;;;2.10;99.90;;;;;;5007860;28;20284;-79
2021/01/08 08:27:59;;;;;;;10.15;9.10;;;2.10;99.90;;;;;;4994129;28;20217;-79
2021/01/08 08:30:27;;;;;;;11.45;9.75;;;2.10;99.90;;;;;;4997977;28;20186;-79
2021/01/08 08:32:53;;;;;;;13.35;10.88;;;2.10;99.90;;;;;;5008475;28;20641;-79
2021/01/08 08:35:19;;;;;;;10.93;9.82;;;2.10;99.90;;;;;;4992358;28;20202;-81
2021/01/08 08:37:56;;;;;;;12.57;10.63;;;2.10;99.90;;;;;;4994590;28;20222;-81
2021/01/08 08:40:29;;;;;;;12.07;10.00;;;2.10;99.90;;;;;;5017068;28;20209;-79
2021/01/08 08:43:00;;;;;;;13.10;10.82;;;2.20;99.90;;;;;;5011342;28;20632;-79
2021/01/08 08:45:31;;;;;;;12.98;10.88;;;2.10;99.90;;;;;;4995164;28;20560;-79
2021/01/08 08:47:58;;;;;;;12.60;11.30;;;2.10;99.90;;;;;;5003481;28;20215;-81
2021/01/08 08:50:25;;;;;;;13.43;10.88;;;2.10;99.90;;;;;;4976776;28;20197;-79
2021/01/08 08:52:52;;;;;;;12.88;10.43;;;2.20;99.90;;;;;;4999049;28;20308;-79
2021/01/08 08:55:44;;;;;;;15.13;11.52;;;2.10;99.90;;;;;;5012104;28;20732;-79
2021/01/08 08:58:11;;;;;;;14.82;11.82;;;2.10;99.90;;;;;;4988104;28;20560;-79
2021/01/08 09:00:42;;;;;;;13.82;12.30;;;2.10;99.90;;;;;;5007977;28;20523;-79
2021/01/08 09:03:17;;;;;;;14.20;12.73;;;2.10;99.90;;;;;;5000745;28;20305;-79
2021/01/08 09:05:43;;;;;;;15.80;12.45;;;2.10;99.90;;;;;;5012475;28;20205;-81
2021/01/08 09:08:25;;;;;;;12.85;11.43;;;2.10;99.90;;;;;;5010894;28;20214;-79
2021/01/08 09:10:51;;;;;;;12.93;10.63;;;2.10;99.90;;;;;;5001419;28;20206;-79
2021/01/08 09:13:39;;;;;;;13.67;11.23;;;2.10;99.90;;;;;;4997164;28;20580;-79
2021/01/08 09:16:23;;;;;;;14.80;12.10;;;2.10;99.90;;;;;;4994360;28;20452;-81
2021/01/08 09:18:55;;;;;;;21.08;13.65;;;2.20;99.90;;;;;;4977229;28;20202;-80
2021/01/08 09:21:26;;;;;;;15.85;13.38;;;2.10;99.90;;;;;;4993005;28;20214;-80
2021/01/08 09:23:53;;;;;;;14.35;12.10;;;2.10;99.90;;;;;;4992078;28;20301;-79
2021/01/08 09:26:20;;;;;;;14.52;12.35;;;2.20;99.90;;;;;;4992380;28;20300;-79
2021/01/08 09:28:52;;;;;;;16.25;13.43;;;2.20;99.90;;;;;;5011200;28;20201;-79
2021/01/08 09:31:19;;;;;;;17.73;12.10;;;2.20;99.90;;;;;;5001020;28;20210;-79
2021/01/08 09:33:58;;;;;;;14.10;12.32;;;2.20;99.90;;;;;;4993446;28;20199;-79
2021/01/08 09:36:35;;;;;;;16.60;13.25;;;2.20;99.90;;;;;;5012726;28;20217;-81
2021/01/08 09:39:04;;;;;;;19.00;13.93;;;2.20;99.90;;;;;;5002950;28;20178;-80
2021/01/08 09:41:33;;;;;;;18.35;13.85;;;2.20;99.90;;;;;;5002846;28;20305;-79
2021/01/08 09:44:00;;;;;;;16.80;11.85;;;2.20;99.90;;;;;;5012242;28;20214;-79
2021/01/08 09:46:26;;;;;;;14.80;12.25;;;2.20;99.90;;;;;;5010931;28;20197;-80
2021/01/08 09:48:53;;;;;;;12.80;11.50;;;2.20;99.90;;;;;;5011163;28;20193;-79
2021/01/08 09:51:19;;;;;;;17.30;14.30;;;2.20;99.90;;;;;;5004478;28;20364;-79
2021/01/08 09:53:55;;;;;;;14.18;11.88;;;2.30;99.90;;;;;;5002941;28;20194;-79
2021/01/08 09:56:21;;;;;;;13.55;11.40;;;2.30;99.90;;;;;;5002675;28;20217;-79
2021/01/08 09:58:47;;;;;;;12.90;11.20;;;2.20;99.90;;;;;;4978665;28;20202;-80
2021/01/08 10:01:13;;;;;;;16.80;11.50;;;2.30;99.90;;;;;;5001426;28;20264;-81
2021/01/08 10:03:41;;;;;;;16.75;13.20;;;2.30;99.90;;;;;;4993031;28;20457;-81
2021/01/08 10:06:10;;;;;;;13.38;11.95;;;2.20;99.90;;;;;;4996581;28;20182;-79
2021/01/08 10:08:38;;;;;;;15.52;13.00;;;2.20;99.90;;;;;;5012771;28;20185;-81
2021/01/08 10:11:05;;;;;;;16.77;11.80;;;2.20;99.90;;;;;;5002623;28;20202;-79
2021/01/08 10:13:32;;;;;;;15.40;12.63;;;2.30;99.90;;;;;;4991103;28;20274;-79
2021/01/08 10:16:05;;;;;;;14.15;11.80;;;2.30;99.90;;;;;;5000369;28;20253;-81
2021/01/08 10:18:36;;;;;;;14.90;12.50;;;2.30;99.90;;;;;;5002687;28;20205;-81
2021/01/08 10:21:09;;;;;;;14.35;11.70;;;2.20;99.90;;;;;;5011214;28;20258;-81
2021/01/08 10:23:45;;;;;;;15.30;12.57;;;2.20;99.90;;;;;;5012031;28;20205;-81
2021/01/08 10:26:18;;;;;;;15.80;11.25;;;2.20;99.90;;;;;;5009119;28;20680;-79
2021/01/08 10:28:56;;;;;;;15.25;12.80;;;2.30;99.90;;;;;;5011599;28;20225;-81
2021/01/08 10:31:24;;;;;;;16.88;12.07;;;2.30;99.90;;;;;;5010017;28;20205;-80
2021/01/08 10:33:51;;;;;;;16.95;10.70;;;2.30;99.90;;;;;;5010829;28;20190;-80
2021/01/08 10:36:17;;;;;;;13.27;11.48;;;2.30;99.90;;;;;;5010367;28;20213;-80
2021/01/08 10:38:43;;;;;;;14.00;12.00;;;2.30;99.90;;;;;;5010645;28;20617;-80
2021/01/08 10:41:09;;;;;;;14.15;11.65;;;2.30;99.90;;;;;;4994353;28;20437;-81
2021/01/08 10:43:35;;;;;;;17.63;12.50;;;2.30;99.90;;;;;;4996684;28;20728;-80
2021/01/08 10:46:04;;;;;;;16.07;13.03;;;2.30;99.90;;;;;;4992488;28;20952;-81
2021/01/08 10:48:30;;;;;;;15.23;11.90;;;2.30;99.90;;;;;;5002317;28;20271;-80
2021/01/08 10:50:57;;;;;;;19.30;14.35;;;2.30;99.90;;;;;;5001076;28;20248;-81
2021/01/08 10:53:22;;;;;;;16.20;12.50;;;2.40;99.90;;;;;;5011824;28;20187;-81
2021/01/08 10:55:48;;;;;;;17.13;13.87;;;2.40;99.90;;;;;;4994675;28;20651;-81
2021/01/08 10:58:16;;;;;;;19.77;14.80;;;2.40;99.90;;;;;;4994965;28;20194;-79
2021/01/08 11:00:49;;;;;;;17.17;13.52;;;2.40;99.90;;;;;;5010759;28;20586;-79
2021/01/08 11:03:14;;;;;;;18.15;14.63;;;2.40;99.90;;;;;;5003606;28;20229;-80
2021/01/08 11:05:41;;;;;;;17.40;13.40;;;2.40;99.90;;;;;;4992273;28;20174;-80
2021/01/08 11:08:07;;;;;;;19.13;15.20;;;2.40;99.90;;;;;;4999765;28;20205;-79
2021/01/08 11:10:37;;;;;;;23.55;16.00;;;2.40;99.90;;;;;;4984488;28;20174;-80
2021/01/08 11:13:03;;;;;;;21.52;14.27;;;2.50;99.90;;;;;;4996725;28;20254;-80
2021/01/08 11:15:29;;;;;;;20.65;14.45;;;2.40;99.90;;;;;;5008945;28;20219;-79
2021/01/08 11:17:55;;;;;;;29.23;17.03;;;2.40;99.90;;;;;;4995693;28;20218;-79
2021/01/08 11:20:21;;;;;;;17.75;14.77;;;2.50;99.90;;;;;;4996328;28;20185;-80
2021/01/08 11:22:47;;;;;;;18.52;15.30;;;2.50;99.90;;;;;;4998199;28;20632;-79
2021/01/08 11:25:14;;;;;;;18.17;13.90;;;2.50;99.90;;;;;;4995527;28;20163;-80
2021/01/08 11:27:43;;;;;;;16.15;12.35;;;2.50;99.90;;;;;;4994144;28;20218;-79
2021/01/08 11:30:11;;;;;;;20.70;15.32;;;2.50;99.90;;;;;;5013329;28;20217;-79
2021/01/08 11:32:37;;;;;;;19.10;14.07;;;2.50;99.90;;;;;;5015162;28;20289;-79
2021/01/08 11:35:04;;;;;;;21.70;15.73;;;2.50;99.90;;;;;;5006014;28;20853;-79
2021/01/08 11:37:31;;;;;;;19.63;15.48;;;2.40;99.90;;;;;;5014768;28;20210;-79
2021/01/08 11:39:57;;;;;;;23.00;16.05;;;2.40;99.90;;;;;;4998281;28;20527;-80
2021/01/08 11:42:23;;;;;;;20.63;16.07;;;2.40;99.90;;;;;;4994311;28;20217;-80
2021/01/08 11:44:49;;;;;;;22.08;15.48;;;2.50;99.90;;;;;;4995605;28;20553;-80
2021/01/08 11:47:27;;;;;;;21.83;16.07;;;2.50;99.90;;;;;;4995341;28;20293;-80
2021/01/08 11:49:53;;;;;;;17.45;14.52;;;2.60;99.90;;;;;;4995786;28;20186;-79
2021/01/08 11:52:19;;;;;;;19.17;13.37;;;2.60;99.90;;;;;;5002774;28;20277;-80
2021/01/08 11:54:44;;;;;;;17.30;15.20;;;2.60;99.90;;;;;;5007387;28;20194;-78
2021/01/08 11:57:10;;;;;;;15.87;13.73;;;2.70;99.90;;;;;;5008876;28;20207;-78
2021/01/08 11:59:36;;;;;;;18.10;13.60;;;2.60;99.90;;;;;;5007489;28;20200;-78
2021/01/08 12:02:05;;;;;;;20.37;14.10;;;2.60;99.90;;;;;;5011271;28;20700;-79
2021/01/08 12:04:32;;;;;;;21.98;13.95;;;2.60;99.90;;;;;;4998990;28;20221;-79
2021/01/08 12:07:02;;;;;;;18.10;14.52;;;2.60;99.90;;;;;;5009813;28;20805;-79
2021/01/08 12:09:29;;;;;;;17.40;14.43;;;2.70;99.90;;;;;;5011738;28;20202;-78
2021/01/08 12:12:04;;;;;;;21.83;14.43;;;2.60;99.90;;;;;;5013802;28;20268;-78
2021/01/08 12:14:31;;;;;;;20.77;14.95;;;2.60;99.90;;;;;;4995410;28;20236;-79
2021/01/08 12:17:08;;;;;;;26.20;15.70;;;2.60;99.90;;;;;;5012855;28;20210;-79
2021/01/08 12:19:34;;;;;;;20.63;15.25;;;2.60;99.90;;;;;;5012268;28;20182;-79
2021/01/08 12:22:00;;;;;;;19.50;15.32;;;2.60;99.90;;;;;;5012418;28;20214;-78
2021/01/08 12:24:26;;;;;;;22.73;16.05;;;2.70;99.90;;;;;;5012632;28;20208;-79
2021/01/08 12:26:53;;;;;;;21.30;15.83;;;2.70;99.90;;;;;;5012635;28;20214;-79
2021/01/08 12:29:19;;;;;;;24.73;17.15;;;2.70;99.90;;;;;;5015929;28;20495;-78
2021/01/08 12:31:45;;;;;;;21.45;16.00;;;2.70;99.90;;;;;;5012023;28;20231;-77
2021/01/08 12:34:11;;;;;;;26.67;17.53;;;2.70;99.90;;;;;;5005060;28;20688;-77
2021/01/08 12:36:37;;;;;;;23.47;16.87;;;2.70;99.90;;;;;;5012333;28;20581;-78
2021/01/08 12:39:03;;;;;;;23.87;16.80;;;2.70;99.90;;;;;;4996880;28;20445;-78
2021/01/08 12:41:32;;;;;;;23.50;17.38;;;2.70;99.90;;;;;;5004532;28;20207;-78
2021/01/08 12:43:58;;;;;;;25.50;17.83;;;2.70;99.90;;;;;;5001889;28;20209;-78
2021/01/08 12:46:24;;;;;;;20.95;15.75;;;2.70;99.90;;;;;;5011508;28;20264;-78
2021/01/08 12:48:50;;;;;;;20.33;16.40;;;2.70;99.90;;;;;;5012300;28;20170;-79
2021/01/08 12:51:16;;;;;;;21.70;17.57;;;2.70;99.90;;;;;;5007926;28;20453;-78
2021/01/08 12:53:43;;;;;;;23.43;16.93;;;2.80;99.90;;;;;;4998087;28;20445;-78